sensor_id;sensor_type;location;lat;lon;timestamp;P1;durP1;ratioP1;P2;durP2;ratioP2
24216;SDS011;12356;49.386;8.688;2022-09-12T00:01:19;13.25;;;8.02;;
24216;SDS011;12356;49.386;8.688;2022-09-12T00:03:52;13.90;;;7.85;;
24216;SDS011;12356;49.386;8.688;2022-09-12T00:06:26;10.38;;;7.78;;
24216;SDS011;12356;49.386;8.688;2022-09-12T00:09:00;9.15;;;7.35;;
24216;SDS011;12356;49.386;8.688;2022-09-12T00:11:36;9.02;;;7.40;;
24216;SDS011;12356;49.386;8.688;2022-09-12T00:14:13;9.52;;;7.45;;
24216;SDS011;12356;49.386;8.688;2022-09-12T00:16:45;11.68;;;7.70;;
24216;SDS011;12356;49.386;8.688;2022-09-12T00:19:16;11.15;;;8.02;;
24216;SDS011;12356;49.386;8.688;2022-09-12T00:21:47;9.30;;;7.80;;
24216;SDS011;12356;49.386;8.688;2022-09-12T00:24:18;10.32;;;7.43;;
24216;SDS011;12356;49.386;8.688;2022-09-12T00:26:48;9.23;;;7.55;;
24216;SDS011;12356;49.386;8.688;2022-09-12T00:29:20;9.82;;;7.25;;
24216;SDS011;12356;49.386;8.688;2022-09-12T00:31:51;9.90;;;7.68;;
24216;SDS011;12356;49.386;8.688;2022-09-12T00:34:22;8.38;;;6.85;;
24216;SDS011;12356;49.386;8.688;2022-09-12T00:36:52;8.98;;;7.03;;
24216;SDS011;12356;49.386;8.688;2022-09-12T00:39:23;9.10;;;6.75;;
24216;SDS011;12356;49.386;8.688;2022-09-12T00:41:54;9.85;;;7.28;;
24216;SDS011;12356;49.386;8.688;2022-09-12T00:47:00;8.63;;;6.88;;
24216;SDS011;12356;49.386;8.688;2022-09-12T00:52:08;8.23;;;7.13;;
24216;SDS011;12356;49.386;8.688;2022-09-12T00:54:58;8.88;;;7.07;;
24216;SDS011;12356;49.386;8.688;2022-09-12T01:00:25;9.63;;;6.82;;
24216;SDS011;12356;49.386;8.688;2022-09-12T01:03:01;9.38;;;6.82;;
24216;SDS011;12356;49.386;8.688;2022-09-12T01:05:37;8.27;;;6.68;;
24216;SDS011;12356;49.386;8.688;2022-09-12T01:08:13;8.13;;;6.68;;
24216;SDS011;12356;49.386;8.688;2022-09-12T01:10:44;8.27;;;6.80;;
24216;SDS011;12356;49.386;8.688;2022-09-12T01:13:15;9.05;;;6.63;;
24216;SDS011;12356;49.386;8.688;2022-09-12T01:15:46;9.43;;;6.75;;
24216;SDS011;12356;49.386;8.688;2022-09-12T01:21:06;8.27;;;6.55;;
24216;SDS011;12356;49.386;8.688;2022-09-12T01:24:21;12.60;;;6.90;;
24216;SDS011;12356;49.386;8.688;2022-09-12T01:36:13;9.65;;;6.80;;
24216;SDS011;12356;49.386;8.688;2022-09-12T01:39:04;12.48;;;7.13;;
24216;SDS011;12356;49.386;8.688;2022-09-12T01:50:19;11.15;;;6.60;;
24216;SDS011;12356;49.386;8.688;2022-09-12T01:53:02;9.93;;;6.57;;
24216;SDS011;12356;49.386;8.688;2022-09-12T01:58:20;9.35;;;6.80;;
24216;SDS011;12356;49.386;8.688;2022-09-12T02:01:03;9.30;;;6.40;;
24216;SDS011;12356;49.386;8.688;2022-09-12T02:06:36;9.88;;;7.10;;
24216;SDS011;12356;49.386;8.688;2022-09-12T02:09:20;7.95;;;6.20;;
24216;SDS011;12356;49.386;8.688;2022-09-12T02:11:58;10.83;;;6.50;;
24216;SDS011;12356;49.386;8.688;2022-09-12T02:14:31;10.90;;;6.50;;
24216;SDS011;12356;49.386;8.688;2022-09-12T02:17:11;9.40;;;6.10;;
24216;SDS011;12356;49.386;8.688;2022-09-12T02:19:54;7.85;;;6.35;;
24216;SDS011;12356;49.386;8.688;2022-09-12T02:22:36;9.45;;;6.95;;
24216;SDS011;12356;49.386;8.688;2022-09-12T02:25:08;9.07;;;6.63;;
24216;SDS011;12356;49.386;8.688;2022-09-12T02:27:43;8.05;;;6.40;;
24216;SDS011;12356;49.386;8.688;2022-09-12T02:30:18;11.20;;;6.65;;
24216;SDS011;12356;49.386;8.688;2022-09-12T02:35:48;8.13;;;6.38;;
24216;SDS011;12356;49.386;8.688;2022-09-12T02:38:36;12.07;;;6.90;;
24216;SDS011;12356;49.386;8.688;2022-09-12T02:41:17;9.85;;;6.60;;
24216;SDS011;12356;49.386;8.688;2022-09-12T02:43:49;8.15;;;6.20;;
24216;SDS011;12356;49.386;8.688;2022-09-12T02:46:31;8.63;;;6.45;;
24216;SDS011;12356;49.386;8.688;2022-09-12T02:49:09;11.32;;;7.40;;
24216;SDS011;12356;49.386;8.688;2022-09-12T02:51:40;12.60;;;7.35;;
24216;SDS011;12356;49.386;8.688;2022-09-12T02:54:10;12.15;;;7.60;;
24216;SDS011;12356;49.386;8.688;2022-09-12T02:59:15;9.80;;;8.18;;
24216;SDS011;12356;49.386;8.688;2022-09-12T03:18:50;10.45;;;8.68;;
24216;SDS011;12356;49.386;8.688;2022-09-12T03:25:16;13.35;;;8.88;;
24216;SDS011;12356;49.386;8.688;2022-09-12T03:27:58;12.80;;;8.75;;
24216;SDS011;12356;49.386;8.688;2022-09-12T03:30:46;12.25;;;8.73;;
24216;SDS011;12356;49.386;8.688;2022-09-12T03:33:19;11.70;;;8.25;;
24216;SDS011;12356;49.386;8.688;2022-09-12T03:35:52;12.02;;;8.50;;
24216;SDS011;12356;49.386;8.688;2022-09-12T03:38:23;14.93;;;8.68;;
24216;SDS011;12356;49.386;8.688;2022-09-12T03:40:54;12.77;;;8.50;;
24216;SDS011;12356;49.386;8.688;2022-09-12T03:43:25;14.15;;;8.45;;
24216;SDS011;12356;49.386;8.688;2022-09-12T03:45:55;11.02;;;8.32;;
24216;SDS011;12356;49.386;8.688;2022-09-12T03:48:26;10.13;;;8.50;;
24216;SDS011;12356;49.386;8.688;2022-09-12T03:51:04;10.88;;;8.27;;
24216;SDS011;12356;49.386;8.688;2022-09-12T03:53:36;11.40;;;8.13;;
24216;SDS011;12356;49.386;8.688;2022-09-12T03:56:10;13.63;;;7.88;;
24216;SDS011;12356;49.386;8.688;2022-09-12T03:58:43;10.60;;;8.27;;
24216;SDS011;12356;49.386;8.688;2022-09-12T04:01:14;12.85;;;8.63;;
24216;SDS011;12356;49.386;8.688;2022-09-12T04:03:48;9.90;;;8.27;;
24216;SDS011;12356;49.386;8.688;2022-09-12T04:06:20;10.18;;;8.30;;
24216;SDS011;12356;49.386;8.688;2022-09-12T04:08:52;12.10;;;8.57;;
24216;SDS011;12356;49.386;8.688;2022-09-12T04:11:24;10.50;;;7.97;;
24216;SDS011;12356;49.386;8.688;2022-09-12T04:13:54;9.65;;;7.80;;
24216;SDS011;12356;49.386;8.688;2022-09-12T04:16:25;12.52;;;8.02;;
24216;SDS011;12356;49.386;8.688;2022-09-12T04:18:56;12.32;;;7.90;;
24216;SDS011;12356;49.386;8.688;2022-09-12T04:21:26;8.43;;;7.50;;
24216;SDS011;12356;49.386;8.688;2022-09-12T04:23:57;13.82;;;7.85;;
24216;SDS011;12356;49.386;8.688;2022-09-12T04:26:28;12.48;;;7.80;;
24216;SDS011;12356;49.386;8.688;2022-09-12T04:31:31;9.82;;;7.57;;
24216;SDS011;12356;49.386;8.688;2022-09-12T04:34:02;15.00;;;7.63;;
24216;SDS011;12356;49.386;8.688;2022-09-12T04:36:33;10.85;;;7.55;;
24216;SDS011;12356;49.386;8.688;2022-09-12T04:39:04;11.43;;;7.88;;
24216;SDS011;12356;49.386;8.688;2022-09-12T04:41:37;9.25;;;7.50;;
24216;SDS011;12356;49.386;8.688;2022-09-12T04:44:12;9.82;;;8.07;;
24216;SDS011;12356;49.386;8.688;2022-09-12T04:46:44;15.65;;;7.90;;
24216;SDS011;12356;49.386;8.688;2022-09-12T04:49:16;11.98;;;7.60;;
24216;SDS011;12356;49.386;8.688;2022-09-12T04:51:48;11.55;;;7.43;;
24216;SDS011;12356;49.386;8.688;2022-09-12T04:54:21;13.38;;;7.22;;
24216;SDS011;12356;49.386;8.688;2022-09-12T04:56:51;10.77;;;7.40;;
24216;SDS011;12356;49.386;8.688;2022-09-12T04:59:23;11.75;;;7.18;;
24216;SDS011;12356;49.386;8.688;2022-09-12T05:01:55;12.33;;;7.43;;
24216;SDS011;12356;49.386;8.688;2022-09-12T05:04:26;10.23;;;6.93;;
24216;SDS011;12356;49.386;8.688;2022-09-12T05:06:56;12.30;;;7.53;;
24216;SDS011;12356;49.386;8.688;2022-09-12T05:09:27;11.23;;;7.70;;
24216;SDS011;12356;49.386;8.688;2022-09-12T05:11:58;11.30;;;7.35;;
24216;SDS011;12356;49.386;8.688;2022-09-12T05:14:29;12.20;;;7.55;;
24216;SDS011;12356;49.386;8.688;2022-09-12T05:17:01;10.93;;;7.93;;
24216;SDS011;12356;49.386;8.688;2022-09-12T05:19:34;12.88;;;8.00;;
24216;SDS011;12356;49.386;8.688;2022-09-12T05:22:05;11.90;;;7.97;;
24216;SDS011;12356;49.386;8.688;2022-09-12T05:24:36;9.77;;;8.18;;
24216;SDS011;12356;49.386;8.688;2022-09-12T05:27:08;11.93;;;8.30;;
24216;SDS011;12356;49.386;8.688;2022-09-12T05:29:39;11.57;;;8.00;;
24216;SDS011;12356;49.386;8.688;2022-09-12T05:32:09;12.63;;;8.80;;
24216;SDS011;12356;49.386;8.688;2022-09-12T05:34:41;12.90;;;8.63;;
24216;SDS011;12356;49.386;8.688;2022-09-12T05:37:12;11.93;;;9.23;;
24216;SDS011;12356;49.386;8.688;2022-09-12T05:39:42;11.63;;;9.43;;
24216;SDS011;12356;49.386;8.688;2022-09-12T05:42:13;14.10;;;9.15;;
24216;SDS011;12356;49.386;8.688;2022-09-12T05:44:44;12.95;;;9.10;;
24216;SDS011;12356;49.386;8.688;2022-09-12T05:47:14;16.08;;;9.45;;
24216;SDS011;12356;49.386;8.688;2022-09-12T05:49:46;16.52;;;9.10;;
24216;SDS011;12356;49.386;8.688;2022-09-12T05:52:17;12.50;;;9.02;;
24216;SDS011;12356;49.386;8.688;2022-09-12T05:54:48;15.05;;;9.20;;
24216;SDS011;12356;49.386;8.688;2022-09-12T05:57:19;17.83;;;9.35;;
24216;SDS011;12356;49.386;8.688;2022-09-12T05:59:49;22.05;;;9.32;;
24216;SDS011;12356;49.386;8.688;2022-09-12T06:02:20;13.40;;;9.73;;
24216;SDS011;12356;49.386;8.688;2022-09-12T06:04:50;17.20;;;9.55;;
24216;SDS011;12356;49.386;8.688;2022-09-12T06:07:21;14.88;;;9.07;;
24216;SDS011;12356;49.386;8.688;2022-09-12T06:09:52;15.65;;;9.93;;
24216;SDS011;12356;49.386;8.688;2022-09-12T06:12:22;18.13;;;9.70;;
24216;SDS011;12356;49.386;8.688;2022-09-12T06:14:53;16.48;;;9.68;;
24216;SDS011;12356;49.386;8.688;2022-09-12T06:17:24;11.88;;;9.40;;
24216;SDS011;12356;49.386;8.688;2022-09-12T06:19:56;14.20;;;9.40;;
24216;SDS011;12356;49.386;8.688;2022-09-12T06:22:26;12.23;;;8.95;;
24216;SDS011;12356;49.386;8.688;2022-09-12T06:24:57;11.50;;;9.13;;
24216;SDS011;12356;49.386;8.688;2022-09-12T06:27:27;13.77;;;9.57;;
24216;SDS011;12356;49.386;8.688;2022-09-12T06:29:58;16.05;;;9.45;;
24216;SDS011;12356;49.386;8.688;2022-09-12T06:32:29;15.25;;;9.48;;
24216;SDS011;12356;49.386;8.688;2022-09-12T06:35:00;17.45;;;9.07;;
24216;SDS011;12356;49.386;8.688;2022-09-12T06:37:31;17.85;;;9.95;;
24216;SDS011;12356;49.386;8.688;2022-09-12T06:40:02;15.00;;;9.63;;
24216;SDS011;12356;49.386;8.688;2022-09-12T06:42:32;31.90;;;11.77;;
24216;SDS011;12356;49.386;8.688;2022-09-12T06:45:03;116.18;;;15.40;;
24216;SDS011;12356;49.386;8.688;2022-09-12T06:47:34;106.95;;;16.38;;
24216;SDS011;12356;49.386;8.688;2022-09-12T06:50:04;95.95;;;15.45;;
24216;SDS011;12356;49.386;8.688;2022-09-12T06:52:35;70.97;;;14.25;;
24216;SDS011;12356;49.386;8.688;2022-09-12T06:55:06;35.78;;;11.57;;
24216;SDS011;12356;49.386;8.688;2022-09-12T06:57:37;37.45;;;11.30;;
24216;SDS011;12356;49.386;8.688;2022-09-12T07:00:08;23.77;;;11.23;;
24216;SDS011;12356;49.386;8.688;2022-09-12T07:02:39;22.38;;;10.60;;
24216;SDS011;12356;49.386;8.688;2022-09-12T07:05:10;20.05;;;11.32;;
24216;SDS011;12356;49.386;8.688;2022-09-12T07:07:42;16.67;;;11.07;;
24216;SDS011;12356;49.386;8.688;2022-09-12T07:10:12;15.65;;;10.68;;
24216;SDS011;12356;49.386;8.688;2022-09-12T07:12:43;21.17;;;10.90;;
24216;SDS011;12356;49.386;8.688;2022-09-12T07:15:14;17.80;;;10.35;;
24216;SDS011;12356;49.386;8.688;2022-09-12T07:17:45;16.42;;;10.38;;
24216;SDS011;12356;49.386;8.688;2022-09-12T07:20:15;15.93;;;10.77;;
24216;SDS011;12356;49.386;8.688;2022-09-12T07:22:46;12.55;;;9.57;;
24216;SDS011;12356;49.386;8.688;2022-09-12T07:25:17;14.50;;;9.95;;
24216;SDS011;12356;49.386;8.688;2022-09-12T07:27:47;16.05;;;9.73;;
24216;SDS011;12356;49.386;8.688;2022-09-12T07:30:18;15.82;;;9.65;;
24216;SDS011;12356;49.386;8.688;2022-09-12T07:32:52;15.10;;;9.15;;
24216;SDS011;12356;49.386;8.688;2022-09-12T07:35:23;14.07;;;9.85;;
24216;SDS011;12356;49.386;8.688;2022-09-12T07:37:53;13.40;;;9.20;;
24216;SDS011;12356;49.386;8.688;2022-09-12T07:40:25;14.07;;;10.10;;
24216;SDS011;12356;49.386;8.688;2022-09-12T07:42:55;14.57;;;9.68;;
24216;SDS011;12356;49.386;8.688;2022-09-12T07:45:26;13.77;;;9.68;;
24216;SDS011;12356;49.386;8.688;2022-09-12T07:47:57;17.90;;;10.18;;
24216;SDS011;12356;49.386;8.688;2022-09-12T07:50:27;16.17;;;10.43;;
24216;SDS011;12356;49.386;8.688;2022-09-12T07:52:58;17.08;;;9.68;;
24216;SDS011;12356;49.386;8.688;2022-09-12T07:55:29;18.60;;;10.52;;
24216;SDS011;12356;49.386;8.688;2022-09-12T07:58:00;15.55;;;10.07;;
24216;SDS011;12356;49.386;8.688;2022-09-12T08:00:30;16.75;;;9.65;;
24216;SDS011;12356;49.386;8.688;2022-09-12T08:03:04;17.90;;;10.32;;
24216;SDS011;12356;49.386;8.688;2022-09-12T08:05:36;15.18;;;9.90;;
24216;SDS011;12356;49.386;8.688;2022-09-12T08:08:06;16.52;;;9.30;;
24216;SDS011;12356;49.386;8.688;2022-09-12T08:10:37;15.63;;;9.13;;
24216;SDS011;12356;49.386;8.688;2022-09-12T08:13:08;13.98;;;8.98;;
24216;SDS011;12356;49.386;8.688;2022-09-12T08:15:38;14.85;;;9.35;;
24216;SDS011;12356;49.386;8.688;2022-09-12T08:18:09;17.33;;;10.40;;
24216;SDS011;12356;49.386;8.688;2022-09-12T08:20:40;16.67;;;9.85;;
24216;SDS011;12356;49.386;8.688;2022-09-12T08:23:11;12.85;;;8.38;;
24216;SDS011;12356;49.386;8.688;2022-09-12T08:25:41;11.02;;;8.23;;
24216;SDS011;12356;49.386;8.688;2022-09-12T08:28:12;15.15;;;8.40;;
24216;SDS011;12356;49.386;8.688;2022-09-12T08:30:42;28.75;;;17.88;;
24216;SDS011;12356;49.386;8.688;2022-09-12T08:33:13;18.13;;;12.23;;
24216;SDS011;12356;49.386;8.688;2022-09-12T08:35:44;12.68;;;8.70;;
24216;SDS011;12356;49.386;8.688;2022-09-12T08:38:15;13.15;;;8.60;;
24216;SDS011;12356;49.386;8.688;2022-09-12T08:40:49;12.00;;;8.60;;
24216;SDS011;12356;49.386;8.688;2022-09-12T08:46:34;13.63;;;8.48;;
24216;SDS011;12356;49.386;8.688;2022-09-12T08:50:09;9.95;;;7.32;;
24216;SDS011;12356;49.386;8.688;2022-09-12T08:54:57;7.95;;;6.10;;
24216;SDS011;12356;49.386;8.688;2022-09-12T08:57:29;6.43;;;5.70;;
24216;SDS011;12356;49.386;8.688;2022-09-12T09:00:00;7.68;;;5.95;;
24216;SDS011;12356;49.386;8.688;2022-09-12T09:05:47;6.88;;;5.60;;
24216;SDS011;12356;49.386;8.688;2022-09-12T09:10:59;6.10;;;5.50;;
24216;SDS011;12356;49.386;8.688;2022-09-12T09:16:45;7.30;;;5.55;;
24216;SDS011;12356;49.386;8.688;2022-09-12T09:19:20;8.48;;;5.78;;
24216;SDS011;12356;49.386;8.688;2022-09-12T09:22:00;6.38;;;5.30;;
24216;SDS011;12356;49.386;8.688;2022-09-12T09:24:50;5.95;;;5.35;;
24216;SDS011;12356;49.386;8.688;2022-09-12T09:30:03;7.18;;;5.30;;
24216;SDS011;12356;49.386;8.688;2022-09-12T09:32:35;5.93;;;5.30;;
24216;SDS011;12356;49.386;8.688;2022-09-12T09:35:15;5.50;;;4.97;;
24216;SDS011;12356;49.386;8.688;2022-09-12T09:37:55;5.45;;;4.90;;
24216;SDS011;12356;49.386;8.688;2022-09-12T09:46:14;5.55;;;4.90;;
24216;SDS011;12356;49.386;8.688;2022-09-12T09:48:46;6.40;;;4.60;;
24216;SDS011;12356;49.386;8.688;2022-09-12T09:51:24;5.45;;;5.00;;
24216;SDS011;12356;49.386;8.688;2022-09-12T09:54:01;4.88;;;4.38;;
24216;SDS011;12356;49.386;8.688;2022-09-12T09:56:47;6.22;;;4.95;;
24216;SDS011;12356;49.386;8.688;2022-09-12T09:59:25;5.85;;;5.18;;
24216;SDS011;12356;49.386;8.688;2022-09-12T10:02:17;4.95;;;4.45;;
24216;SDS011;12356;49.386;8.688;2022-09-12T10:04:53;6.25;;;4.65;;
24216;SDS011;12356;49.386;8.688;2022-09-12T10:07:27;5.20;;;4.70;;
24216;SDS011;12356;49.386;8.688;2022-09-12T10:10:03;5.90;;;4.72;;
24216;SDS011;12356;49.386;8.688;2022-09-12T10:12:45;5.82;;;4.68;;
24216;SDS011;12356;49.386;8.688;2022-09-12T10:15:17;5.25;;;4.75;;
24216;SDS011;12356;49.386;8.688;2022-09-12T10:17:52;5.65;;;4.55;;
24216;SDS011;12356;49.386;8.688;2022-09-12T10:25:32;5.65;;;5.00;;
24216;SDS011;12356;49.386;8.688;2022-09-12T10:28:02;4.50;;;4.05;;
24216;SDS011;12356;49.386;8.688;2022-09-12T10:30:33;4.72;;;4.32;;
24216;SDS011;12356;49.386;8.688;2022-09-12T10:33:06;5.68;;;4.72;;
24216;SDS011;12356;49.386;8.688;2022-09-12T10:35:41;5.03;;;4.45;;
24216;SDS011;12356;49.386;8.688;2022-09-12T10:38:27;4.88;;;4.35;;
24216;SDS011;12356;49.386;8.688;2022-09-12T10:41:04;5.00;;;4.50;;
24216;SDS011;12356;49.386;8.688;2022-09-12T10:43:38;4.60;;;4.20;;
24216;SDS011;12356;49.386;8.688;2022-09-12T10:48:50;5.28;;;4.57;;
24216;SDS011;12356;49.386;8.688;2022-09-12T10:51:41;5.38;;;4.57;;
24216;SDS011;12356;49.386;8.688;2022-09-12T10:54:12;7.10;;;4.22;;
24216;SDS011;12356;49.386;8.688;2022-09-12T11:02:47;5.57;;;4.30;;
24216;SDS011;12356;49.386;8.688;2022-09-12T11:08:24;4.55;;;4.15;;
24216;SDS011;12356;49.386;8.688;2022-09-12T11:27:53;6.30;;;4.60;;
24216;SDS011;12356;49.386;8.688;2022-09-12T11:30:26;4.40;;;4.00;;
24216;SDS011;12356;49.386;8.688;2022-09-12T11:35:56;5.18;;;4.10;;
24216;SDS011;12356;49.386;8.688;2022-09-12T11:43:59;4.53;;;4.03;;
24216;SDS011;12356;49.386;8.688;2022-09-12T11:46:51;5.93;;;4.10;;
24216;SDS011;12356;49.386;8.688;2022-09-12T11:49:26;8.27;;;3.97;;
24216;SDS011;12356;49.386;8.688;2022-09-12T11:52:06;6.55;;;3.92;;
24216;SDS011;12356;49.386;8.688;2022-09-12T11:57:49;4.13;;;3.65;;
24216;SDS011;12356;49.386;8.688;2022-09-12T12:00:43;3.67;;;3.38;;
24216;SDS011;12356;49.386;8.688;2022-09-12T12:03:24;3.90;;;3.60;;
24216;SDS011;12356;49.386;8.688;2022-09-12T12:08:48;3.47;;;3.10;;
24216;SDS011;12356;49.386;8.688;2022-09-12T12:11:33;3.95;;;3.03;;
24216;SDS011;12356;49.386;8.688;2022-09-12T12:14:12;3.22;;;2.85;;
24216;SDS011;12356;49.386;8.688;2022-09-12T12:16:50;3.40;;;3.10;;
24216;SDS011;12356;49.386;8.688;2022-09-12T12:19:32;3.72;;;3.13;;
24216;SDS011;12356;49.386;8.688;2022-09-12T12:24:53;3.50;;;3.20;;
24216;SDS011;12356;49.386;8.688;2022-09-12T12:35:37;3.33;;;2.70;;
24216;SDS011;12356;49.386;8.688;2022-09-12T12:38:31;4.82;;;2.70;;
24216;SDS011;12356;49.386;8.688;2022-09-12T12:43:49;3.47;;;3.17;;
24216;SDS011;12356;49.386;8.688;2022-09-12T12:46:24;3.03;;;2.72;;
24216;SDS011;12356;49.386;8.688;2022-09-12T12:49:09;3.10;;;2.80;;
24216;SDS011;12356;49.386;8.688;2022-09-12T12:51:53;4.13;;;2.90;;
24216;SDS011;12356;49.386;8.688;2022-09-12T12:57:02;3.53;;;3.20;;
24216;SDS011;12356;49.386;8.688;2022-09-12T12:59:46;2.92;;;2.70;;
24216;SDS011;12356;49.386;8.688;2022-09-12T13:02:34;4.45;;;3.08;;
24216;SDS011;12356;49.386;8.688;2022-09-12T13:05:19;2.65;;;2.45;;
24216;SDS011;12356;49.386;8.688;2022-09-12T13:07:53;2.70;;;2.50;;
24216;SDS011;12356;49.386;8.688;2022-09-12T13:10:28;3.47;;;2.40;;
24216;SDS011;12356;49.386;8.688;2022-09-12T13:13:00;3.90;;;3.10;;
24216;SDS011;12356;49.386;8.688;2022-09-12T13:18:05;3.10;;;2.80;;
24216;SDS011;12356;49.386;8.688;2022-09-12T13:21:14;3.90;;;2.50;;
24216;SDS011;12356;49.386;8.688;2022-09-12T13:23:41;3.47;;;2.60;;
24216;SDS011;12356;49.386;8.688;2022-09-12T13:26:22;2.60;;;2.40;;
24216;SDS011;12356;49.386;8.688;2022-09-12T13:31:55;2.97;;;2.67;;
24216;SDS011;12356;49.386;8.688;2022-09-12T13:34:49;3.97;;;2.33;;
24216;SDS011;12356;49.386;8.688;2022-09-12T13:37:42;2.70;;;2.50;;
24216;SDS011;12356;49.386;8.688;2022-09-12T13:43:16;3.28;;;2.95;;
24216;SDS011;12356;49.386;8.688;2022-09-12T13:45:55;2.92;;;2.40;;
24216;SDS011;12356;49.386;8.688;2022-09-12T13:48:26;2.50;;;2.30;;
24216;SDS011;12356;49.386;8.688;2022-09-12T13:50:58;2.80;;;2.45;;
24216;SDS011;12356;49.386;8.688;2022-09-12T13:53:31;2.53;;;2.33;;
24216;SDS011;12356;49.386;8.688;2022-09-12T13:56:19;5.03;;;2.40;;
24216;SDS011;12356;49.386;8.688;2022-09-12T13:58:51;4.28;;;2.10;;
24216;SDS011;12356;49.386;8.688;2022-09-12T14:01:23;2.25;;;2.05;;
24216;SDS011;12356;49.386;8.688;2022-09-12T14:07:13;3.03;;;2.55;;
24216;SDS011;12356;49.386;8.688;2022-09-12T14:09:57;4.43;;;2.15;;
24216;SDS011;12356;49.386;8.688;2022-09-12T14:12:30;2.63;;;2.42;;
24216;SDS011;12356;49.386;8.688;2022-09-12T14:15:14;3.50;;;2.75;;
24216;SDS011;12356;49.386;8.688;2022-09-12T14:17:50;3.47;;;2.30;;
24216;SDS011;12356;49.386;8.688;2022-09-12T14:20:22;3.63;;;2.60;;
24216;SDS011;12356;49.386;8.688;2022-09-12T14:22:53;2.40;;;2.15;;
24216;SDS011;12356;49.386;8.688;2022-09-12T14:25:24;2.90;;;2.20;;
24216;SDS011;12356;49.386;8.688;2022-09-12T14:27:58;2.55;;;2.33;;
24216;SDS011;12356;49.386;8.688;2022-09-12T14:30:33;4.07;;;2.20;;
24216;SDS011;12356;49.386;8.688;2022-09-12T14:40:45;3.15;;;2.33;;
24216;SDS011;12356;49.386;8.688;2022-09-12T14:43:36;4.15;;;2.40;;
24216;SDS011;12356;49.386;8.688;2022-09-12T14:46:17;2.72;;;2.50;;
24216;SDS011;12356;49.386;8.688;2022-09-12T14:48:57;3.60;;;2.65;;
24216;SDS011;12356;49.386;8.688;2022-09-12T14:51:31;2.92;;;2.47;;
24216;SDS011;12356;49.386;8.688;2022-09-12T14:57:04;2.60;;;2.40;;
24216;SDS011;12356;49.386;8.688;2022-09-12T15:00:04;2.92;;;2.42;;
24216;SDS011;12356;49.386;8.688;2022-09-12T15:02:43;2.40;;;2.20;;
24216;SDS011;12356;49.386;8.688;2022-09-12T15:05:15;2.80;;;2.60;;
24216;SDS011;12356;49.386;8.688;2022-09-12T15:10:21;4.35;;;2.40;;
24216;SDS011;12356;49.386;8.688;2022-09-12T15:13:04;2.85;;;2.33;;
24216;SDS011;12356;49.386;8.688;2022-09-12T15:15:47;3.65;;;2.40;;
24216;SDS011;12356;49.386;8.688;2022-09-12T15:18:19;3.30;;;2.28;;
24216;SDS011;12356;49.386;8.688;2022-09-12T15:20:53;5.45;;;2.50;;
24216;SDS011;12356;49.386;8.688;2022-09-12T15:26:00;2.60;;;2.40;;
24216;SDS011;12356;49.386;8.688;2022-09-12T15:28:31;4.25;;;2.40;;
24216;SDS011;12356;49.386;8.688;2022-09-12T15:31:04;5.90;;;2.40;;
24216;SDS011;12356;49.386;8.688;2022-09-12T15:33:56;3.83;;;2.70;;
24216;SDS011;12356;49.386;8.688;2022-09-12T15:36:28;3.35;;;2.40;;
24216;SDS011;12356;49.386;8.688;2022-09-12T15:38:59;4.90;;;2.35;;
24216;SDS011;12356;49.386;8.688;2022-09-12T15:41:31;4.20;;;2.53;;
24216;SDS011;12356;49.386;8.688;2022-09-12T15:44:06;3.97;;;2.40;;
24216;SDS011;12356;49.386;8.688;2022-09-12T15:46:40;4.85;;;2.70;;
24216;SDS011;12356;49.386;8.688;2022-09-12T15:49:11;5.63;;;2.97;;
24216;SDS011;12356;49.386;8.688;2022-09-12T15:51:41;3.83;;;2.60;;
24216;SDS011;12356;49.386;8.688;2022-09-12T15:54:12;2.65;;;2.42;;
24216;SDS011;12356;49.386;8.688;2022-09-12T15:56:43;2.57;;;2.37;;
24216;SDS011;12356;49.386;8.688;2022-09-12T15:59:14;2.60;;;2.40;;
24216;SDS011;12356;49.386;8.688;2022-09-12T16:01:45;5.32;;;2.78;;
24216;SDS011;12356;49.386;8.688;2022-09-12T16:04:20;4.80;;;2.65;;
24216;SDS011;12356;49.386;8.688;2022-09-12T16:06:53;3.97;;;2.63;;
24216;SDS011;12356;49.386;8.688;2022-09-12T16:09:24;3.17;;;2.60;;
24216;SDS011;12356;49.386;8.688;2022-09-12T16:11:55;3.30;;;2.50;;
24216;SDS011;12356;49.386;8.688;2022-09-12T16:14:25;2.90;;;2.53;;
24216;SDS011;12356;49.386;8.688;2022-09-12T16:16:56;5.60;;;2.30;;
24216;SDS011;12356;49.386;8.688;2022-09-12T16:19:27;3.75;;;2.50;;
24216;SDS011;12356;49.386;8.688;2022-09-12T16:21:57;2.97;;;2.40;;
24216;SDS011;12356;49.386;8.688;2022-09-12T16:24:28;5.68;;;2.30;;
24216;SDS011;12356;49.386;8.688;2022-09-12T16:26:59;3.38;;;2.30;;
24216;SDS011;12356;49.386;8.688;2022-09-12T16:29:29;3.33;;;2.50;;
24216;SDS011;12356;49.386;8.688;2022-09-12T16:32:00;2.95;;;2.60;;
24216;SDS011;12356;49.386;8.688;2022-09-12T16:34:31;2.50;;;2.28;;
24216;SDS011;12356;49.386;8.688;2022-09-12T16:37:01;4.55;;;2.40;;
24216;SDS011;12356;49.386;8.688;2022-09-12T16:39:32;2.85;;;2.60;;
24216;SDS011;12356;49.386;8.688;2022-09-12T16:42:03;2.78;;;2.50;;
24216;SDS011;12356;49.386;8.688;2022-09-12T16:44:34;5.15;;;2.50;;
24216;SDS011;12356;49.386;8.688;2022-09-12T16:47:04;4.30;;;2.53;;
24216;SDS011;12356;49.386;8.688;2022-09-12T16:49:35;2.78;;;2.55;;
24216;SDS011;12356;49.386;8.688;2022-09-12T16:52:06;4.05;;;2.83;;
24216;SDS011;12356;49.386;8.688;2022-09-12T16:54:37;4.95;;;2.60;;
24216;SDS011;12356;49.386;8.688;2022-09-12T16:57:07;6.50;;;2.63;;
24216;SDS011;12356;49.386;8.688;2022-09-12T16:59:38;8.82;;;3.10;;
24216;SDS011;12356;49.386;8.688;2022-09-12T17:02:12;4.05;;;2.47;;
24216;SDS011;12356;49.386;8.688;2022-09-12T17:04:43;2.53;;;2.30;;
24216;SDS011;12356;49.386;8.688;2022-09-12T17:07:14;3.00;;;2.53;;
24216;SDS011;12356;49.386;8.688;2022-09-12T17:09:44;5.40;;;2.60;;
24216;SDS011;12356;49.386;8.688;2022-09-12T17:12:16;4.43;;;2.88;;
24216;SDS011;12356;49.386;8.688;2022-09-12T17:14:46;3.13;;;2.70;;
24216;SDS011;12356;49.386;8.688;2022-09-12T17:17:17;6.00;;;2.50;;
24216;SDS011;12356;49.386;8.688;2022-09-12T17:19:47;3.38;;;2.78;;
24216;SDS011;12356;49.386;8.688;2022-09-12T17:22:18;3.05;;;2.50;;
24216;SDS011;12356;49.386;8.688;2022-09-12T17:24:49;3.28;;;2.88;;
24216;SDS011;12356;49.386;8.688;2022-09-12T17:27:19;46.33;;;6.65;;
24216;SDS011;12356;49.386;8.688;2022-09-12T17:29:50;24.08;;;5.20;;
24216;SDS011;12356;49.386;8.688;2022-09-12T17:32:20;7.55;;;3.20;;
24216;SDS011;12356;49.386;8.688;2022-09-12T17:34:51;4.35;;;3.00;;
24216;SDS011;12356;49.386;8.688;2022-09-12T17:37:22;4.45;;;2.90;;
24216;SDS011;12356;49.386;8.688;2022-09-12T17:39:53;4.68;;;2.67;;
24216;SDS011;12356;49.386;8.688;2022-09-12T17:42:24;14.02;;;4.93;;
24216;SDS011;12356;49.386;8.688;2022-09-12T17:44:54;46.75;;;11.85;;
24216;SDS011;12356;49.386;8.688;2022-09-12T17:47:27;25.67;;;7.30;;
24216;SDS011;12356;49.386;8.688;2022-09-12T17:49:57;6.82;;;3.13;;
24216;SDS011;12356;49.386;8.688;2022-09-12T17:52:29;3.42;;;2.80;;
24216;SDS011;12356;49.386;8.688;2022-09-12T17:54:59;5.55;;;3.20;;
24216;SDS011;12356;49.386;8.688;2022-09-12T17:57:30;3.10;;;2.72;;
24216;SDS011;12356;49.386;8.688;2022-09-12T18:00:01;4.35;;;2.60;;
24216;SDS011;12356;49.386;8.688;2022-09-12T18:02:33;4.47;;;2.58;;
24216;SDS011;12356;49.386;8.688;2022-09-12T18:05:04;5.15;;;2.80;;
24216;SDS011;12356;49.386;8.688;2022-09-12T18:07:34;5.68;;;3.08;;
24216;SDS011;12356;49.386;8.688;2022-09-12T18:10:05;3.15;;;2.70;;
24216;SDS011;12356;49.386;8.688;2022-09-12T18:12:37;3.42;;;2.85;;
24216;SDS011;12356;49.386;8.688;2022-09-12T18:15:07;6.90;;;2.95;;
24216;SDS011;12356;49.386;8.688;2022-09-12T18:17:38;3.22;;;2.92;;
24216;SDS011;12356;49.386;8.688;2022-09-12T18:20:09;3.13;;;2.70;;